sensor_id;sensor_type;location;lat;lon;timestamp;P1;durP1;ratioP1;P2;durP2;ratioP2
19127;SDS011;9696;53.686;10.094;2023-05-10T00:00:32;3.10;;;2.50;;
19127;SDS011;9696;53.686;10.094;2023-05-10T00:03:01;7.27;;;2.30;;
19127;SDS011;9696;53.686;10.094;2023-05-10T00:05:31;4.30;;;2.53;;
19127;SDS011;9696;53.686;10.094;2023-05-10T00:08:00;6.70;;;2.30;;
19127;SDS011;9696;53.686;10.094;2023-05-10T00:10:30;7.97;;;2.40;;
19127;SDS011;9696;53.686;10.094;2023-05-10T00:12:59;4.57;;;2.60;;
19127;SDS011;9696;53.686;10.094;2023-05-10T00:15:28;3.93;;;2.60;;
19127;SDS011;9696;53.686;10.094;2023-05-10T00:17:59;4.77;;;2.37;;
19127;SDS011;9696;53.686;10.094;2023-05-10T00:20:28;2.80;;;2.13;;
19127;SDS011;9696;53.686;10.094;2023-05-10T00:22:57;4.73;;;2.53;;
19127;SDS011;9696;53.686;10.094;2023-05-10T00:25:27;6.50;;;2.50;;
19127;SDS011;9696;53.686;10.094;2023-05-10T00:27:56;18.80;;;2.33;;
19127;SDS011;9696;53.686;10.094;2023-05-10T00:30:25;7.20;;;2.47;;
19127;SDS011;9696;53.686;10.094;2023-05-10T00:32:54;3.93;;;2.50;;
19127;SDS011;9696;53.686;10.094;2023-05-10T00:35:25;10.87;;;2.40;;
19127;SDS011;9696;53.686;10.094;2023-05-10T00:37:54;8.10;;;2.50;;
19127;SDS011;9696;53.686;10.094;2023-05-10T00:40:23;5.83;;;2.60;;
19127;SDS011;9696;53.686;10.094;2023-05-10T00:42:57;7.53;;;2.73;;
19127;SDS011;9696;53.686;10.094;2023-05-10T00:45:28;8.13;;;2.33;;
19127;SDS011;9696;53.686;10.094;2023-05-10T00:47:58;4.10;;;2.30;;
19127;SDS011;9696;53.686;10.094;2023-05-10T00:50:30;3.13;;;2.40;;
19127;SDS011;9696;53.686;10.094;2023-05-10T00:53:01;6.70;;;2.33;;
19127;SDS011;9696;53.686;10.094;2023-05-10T00:55:31;5.90;;;2.70;;
19127;SDS011;9696;53.686;10.094;2023-05-10T00:58:00;5.43;;;2.63;;
19127;SDS011;9696;53.686;10.094;2023-05-10T01:00:29;4.00;;;2.40;;
19127;SDS011;9696;53.686;10.094;2023-05-10T01:03:00;4.23;;;2.30;;
19127;SDS011;9696;53.686;10.094;2023-05-10T01:05:30;5.13;;;2.50;;
19127;SDS011;9696;53.686;10.094;2023-05-10T01:07:59;9.47;;;2.50;;
19127;SDS011;9696;53.686;10.094;2023-05-10T01:10:29;4.03;;;2.50;;
19127;SDS011;9696;53.686;10.094;2023-05-10T01:12:59;6.70;;;2.20;;
19127;SDS011;9696;53.686;10.094;2023-05-10T01:15:30;7.47;;;2.70;;
19127;SDS011;9696;53.686;10.094;2023-05-10T01:18:00;8.83;;;2.27;;
19127;SDS011;9696;53.686;10.094;2023-05-10T01:20:32;3.53;;;2.30;;
19127;SDS011;9696;53.686;10.094;2023-05-10T01:29:11;2.50;;;2.17;;
19127;SDS011;9696;53.686;10.094;2023-05-10T01:32:12;3.07;;;2.10;;
19127;SDS011;9696;53.686;10.094;2023-05-10T01:35:00;2.87;;;2.10;;
19127;SDS011;9696;53.686;10.094;2023-05-10T01:37:33;7.80;;;2.50;;
19127;SDS011;9696;53.686;10.094;2023-05-10T01:40:13;8.03;;;2.70;;
19127;SDS011;9696;53.686;10.094;2023-05-10T01:42:48;8.90;;;2.27;;
19127;SDS011;9696;53.686;10.094;2023-05-10T01:45:21;11.67;;;2.53;;
19127;SDS011;9696;53.686;10.094;2023-05-10T01:48:01;3.70;;;2.30;;
19127;SDS011;9696;53.686;10.094;2023-05-10T01:50:35;3.13;;;2.30;;
19127;SDS011;9696;53.686;10.094;2023-05-10T01:53:07;4.70;;;2.67;;
19127;SDS011;9696;53.686;10.094;2023-05-10T01:55:39;4.77;;;2.60;;
19127;SDS011;9696;53.686;10.094;2023-05-10T01:58:15;4.33;;;2.57;;
19127;SDS011;9696;53.686;10.094;2023-05-10T02:00:49;4.67;;;2.53;;
19127;SDS011;9696;53.686;10.094;2023-05-10T02:03:21;8.37;;;2.50;;
19127;SDS011;9696;53.686;10.094;2023-05-10T02:05:54;6.03;;;2.50;;
19127;SDS011;9696;53.686;10.094;2023-05-10T02:08:25;4.60;;;2.50;;
19127;SDS011;9696;53.686;10.094;2023-05-10T02:10:56;5.53;;;2.47;;
19127;SDS011;9696;53.686;10.094;2023-05-10T02:13:27;4.43;;;2.70;;
19127;SDS011;9696;53.686;10.094;2023-05-10T02:15:57;3.00;;;2.27;;
19127;SDS011;9696;53.686;10.094;2023-05-10T02:18:31;7.27;;;2.63;;
19127;SDS011;9696;53.686;10.094;2023-05-10T02:21:01;4.70;;;2.50;;
19127;SDS011;9696;53.686;10.094;2023-05-10T02:23:31;5.10;;;2.60;;
19127;SDS011;9696;53.686;10.094;2023-05-10T02:26:01;4.27;;;2.73;;
19127;SDS011;9696;53.686;10.094;2023-05-10T02:28:32;5.10;;;2.43;;
19127;SDS011;9696;53.686;10.094;2023-05-10T02:31:05;6.97;;;2.57;;
19127;SDS011;9696;53.686;10.094;2023-05-10T02:33:39;8.27;;;2.80;;
19127;SDS011;9696;53.686;10.094;2023-05-10T02:36:09;5.17;;;2.53;;
19127;SDS011;9696;53.686;10.094;2023-05-10T02:38:39;4.50;;;2.60;;
19127;SDS011;9696;53.686;10.094;2023-05-10T02:41:09;5.57;;;2.60;;
19127;SDS011;9696;53.686;10.094;2023-05-10T02:43:39;3.87;;;2.50;;
19127;SDS011;9696;53.686;10.094;2023-05-10T02:46:09;8.87;;;2.70;;
19127;SDS011;9696;53.686;10.094;2023-05-10T02:48:40;3.40;;;2.40;;
19127;SDS011;9696;53.686;10.094;2023-05-10T02:51:09;6.20;;;3.00;;
19127;SDS011;9696;53.686;10.094;2023-05-10T02:53:44;13.60;;;3.00;;
19127;SDS011;9696;53.686;10.094;2023-05-10T02:56:18;8.13;;;2.60;;
19127;SDS011;9696;53.686;10.094;2023-05-10T02:58:59;4.67;;;2.47;;
19127;SDS011;9696;53.686;10.094;2023-05-10T03:01:28;3.80;;;2.67;;
19127;SDS011;9696;53.686;10.094;2023-05-10T03:03:59;5.63;;;3.17;;
19127;SDS011;9696;53.686;10.094;2023-05-10T03:06:28;6.80;;;3.00;;
19127;SDS011;9696;53.686;10.094;2023-05-10T03:08:58;4.17;;;2.63;;
19127;SDS011;9696;53.686;10.094;2023-05-10T03:11:30;5.67;;;2.93;;
19127;SDS011;9696;53.686;10.094;2023-05-10T03:14:10;10.40;;;2.77;;
19127;SDS011;9696;53.686;10.094;2023-05-10T03:16:52;7.73;;;2.30;;
19127;SDS011;9696;53.686;10.094;2023-05-10T03:19:29;2.93;;;2.20;;
19127;SDS011;9696;53.686;10.094;2023-05-10T03:22:04;5.53;;;2.40;;
19127;SDS011;9696;53.686;10.094;2023-05-10T03:24:38;3.80;;;2.47;;
19127;SDS011;9696;53.686;10.094;2023-05-10T03:27:09;6.63;;;2.50;;
19127;SDS011;9696;53.686;10.094;2023-05-10T03:29:39;7.60;;;2.93;;
19127;SDS011;9696;53.686;10.094;2023-05-10T03:32:10;4.53;;;2.60;;
19127;SDS011;9696;53.686;10.094;2023-05-10T03:34:42;6.80;;;3.10;;
19127;SDS011;9696;53.686;10.094;2023-05-10T03:37:11;4.37;;;2.90;;
19127;SDS011;9696;53.686;10.094;2023-05-10T03:39:40;16.13;;;2.83;;
19127;SDS011;9696;53.686;10.094;2023-05-10T03:42:10;4.83;;;2.33;;
19127;SDS011;9696;53.686;10.094;2023-05-10T03:44:39;7.53;;;3.07;;
19127;SDS011;9696;53.686;10.094;2023-05-10T03:47:08;4.53;;;2.80;;
19127;SDS011;9696;53.686;10.094;2023-05-10T03:49:38;8.30;;;2.93;;
19127;SDS011;9696;53.686;10.094;2023-05-10T03:52:08;3.70;;;2.40;;
19127;SDS011;9696;53.686;10.094;2023-05-10T03:54:37;3.00;;;2.60;;
19127;SDS011;9696;53.686;10.094;2023-05-10T03:57:07;3.67;;;2.90;;
19127;SDS011;9696;53.686;10.094;2023-05-10T03:59:36;14.10;;;2.47;;
19127;SDS011;9696;53.686;10.094;2023-05-10T04:02:05;7.37;;;3.03;;
19127;SDS011;9696;53.686;10.094;2023-05-10T04:04:35;6.73;;;3.20;;
19127;SDS011;9696;53.686;10.094;2023-05-10T04:07:05;9.17;;;2.37;;
19127;SDS011;9696;53.686;10.094;2023-05-10T04:09:35;4.97;;;2.67;;
19127;SDS011;9696;53.686;10.094;2023-05-10T04:12:05;11.97;;;2.73;;
19127;SDS011;9696;53.686;10.094;2023-05-10T04:14:37;3.97;;;2.70;;
19127;SDS011;9696;53.686;10.094;2023-05-10T04:17:06;7.30;;;2.70;;
19127;SDS011;9696;53.686;10.094;2023-05-10T04:19:35;4.87;;;2.77;;
19127;SDS011;9696;53.686;10.094;2023-05-10T04:22:04;6.40;;;3.10;;
19127;SDS011;9696;53.686;10.094;2023-05-10T04:24:33;4.00;;;2.90;;
19127;SDS011;9696;53.686;10.094;2023-05-10T04:27:03;5.30;;;3.00;;
19127;SDS011;9696;53.686;10.094;2023-05-10T04:29:33;4.80;;;3.00;;
19127;SDS011;9696;53.686;10.094;2023-05-10T04:32:02;4.53;;;2.77;;
19127;SDS011;9696;53.686;10.094;2023-05-10T04:34:31;3.53;;;2.43;;
19127;SDS011;9696;53.686;10.094;2023-05-10T04:37:01;5.97;;;2.70;;
19127;SDS011;9696;53.686;10.094;2023-05-10T04:39:30;4.70;;;3.10;;
19127;SDS011;9696;53.686;10.094;2023-05-10T04:42:00;4.77;;;2.87;;
19127;SDS011;9696;53.686;10.094;2023-05-10T04:44:32;5.40;;;2.70;;
19127;SDS011;9696;53.686;10.094;2023-05-10T04:47:01;9.17;;;3.13;;
19127;SDS011;9696;53.686;10.094;2023-05-10T04:49:30;4.63;;;2.40;;
19127;SDS011;9696;53.686;10.094;2023-05-10T04:52:00;8.70;;;3.43;;
19127;SDS011;9696;53.686;10.094;2023-05-10T04:54:29;5.07;;;3.00;;
19127;SDS011;9696;53.686;10.094;2023-05-10T04:56:58;5.37;;;2.70;;
19127;SDS011;9696;53.686;10.094;2023-05-10T04:59:28;4.53;;;2.77;;
19127;SDS011;9696;53.686;10.094;2023-05-10T05:01:57;6.77;;;2.90;;
19127;SDS011;9696;53.686;10.094;2023-05-10T05:04:27;4.87;;;2.73;;
19127;SDS011;9696;53.686;10.094;2023-05-10T05:06:57;5.27;;;2.53;;
19127;SDS011;9696;53.686;10.094;2023-05-10T05:09:26;5.63;;;2.90;;
19127;SDS011;9696;53.686;10.094;2023-05-10T05:11:56;5.17;;;3.00;;
19127;SDS011;9696;53.686;10.094;2023-05-10T05:14:27;4.50;;;3.03;;
19127;SDS011;9696;53.686;10.094;2023-05-10T05:16:56;3.80;;;2.63;;
19127;SDS011;9696;53.686;10.094;2023-05-10T05:19:25;6.93;;;4.07;;
19127;SDS011;9696;53.686;10.094;2023-05-10T05:21:54;11.67;;;3.17;;
19127;SDS011;9696;53.686;10.094;2023-05-10T05:24:23;12.57;;;2.80;;
19127;SDS011;9696;53.686;10.094;2023-05-10T05:26:52;5.70;;;2.93;;
19127;SDS011;9696;53.686;10.094;2023-05-10T05:29:21;5.27;;;2.87;;
19127;SDS011;9696;53.686;10.094;2023-05-10T05:31:52;4.03;;;2.70;;
19127;SDS011;9696;53.686;10.094;2023-05-10T05:34:21;5.10;;;3.00;;
19127;SDS011;9696;53.686;10.094;2023-05-10T05:36:51;4.45;;;2.55;;
19127;SDS011;9696;53.686;10.094;2023-05-10T05:39:20;6.20;;;2.70;;
19127;SDS011;9696;53.686;10.094;2023-05-10T05:41:49;2.50;;;2.03;;
19127;SDS011;9696;53.686;10.094;2023-05-10T05:44:18;2.65;;;2.22;;
19127;SDS011;9696;53.686;10.094;2023-05-10T05:46:47;9.05;;;2.25;;
19127;SDS011;9696;53.686;10.094;2023-05-10T05:49:18;4.28;;;2.38;;
19127;SDS011;9696;53.686;10.094;2023-05-10T05:51:47;5.55;;;2.67;;
19127;SDS011;9696;53.686;10.094;2023-05-10T05:54:17;3.97;;;2.28;;
19127;SDS011;9696;53.686;10.094;2023-05-10T05:56:46;3.75;;;2.50;;
19127;SDS011;9696;53.686;10.094;2023-05-10T05:59:15;3.95;;;2.15;;
19127;SDS011;9696;53.686;10.094;2023-05-10T06:01:44;3.00;;;2.20;;
19127;SDS011;9696;53.686;10.094;2023-05-10T06:04:13;5.47;;;2.20;;
19127;SDS011;9696;53.686;10.094;2023-05-10T06:06:44;4.80;;;2.40;;
19127;SDS011;9696;53.686;10.094;2023-05-10T06:09:14;21.98;;;2.38;;
19127;SDS011;9696;53.686;10.094;2023-05-10T06:11:43;3.67;;;2.33;;
19127;SDS011;9696;53.686;10.094;2023-05-10T06:14:13;4.72;;;2.67;;
19127;SDS011;9696;53.686;10.094;2023-05-10T06:16:42;4.20;;;2.25;;
19127;SDS011;9696;53.686;10.094;2023-05-10T06:19:12;5.22;;;2.20;;
19127;SDS011;9696;53.686;10.094;2023-05-10T06:21:41;5.82;;;2.58;;
19127;SDS011;9696;53.686;10.094;2023-05-10T06:24:11;7.53;;;3.20;;
19127;SDS011;9696;53.686;10.094;2023-05-10T06:26:40;8.10;;;1.98;;
19127;SDS011;9696;53.686;10.094;2023-05-10T06:29:09;5.45;;;2.17;;
19127;SDS011;9696;53.686;10.094;2023-05-10T06:31:39;4.32;;;2.22;;
19127;SDS011;9696;53.686;10.094;2023-05-10T06:34:08;4.20;;;2.00;;
19127;SDS011;9696;53.686;10.094;2023-05-10T06:36:38;4.90;;;2.55;;
19127;SDS011;9696;53.686;10.094;2023-05-10T06:39:08;7.97;;;2.28;;
19127;SDS011;9696;53.686;10.094;2023-05-10T06:41:39;6.15;;;2.55;;
19127;SDS011;9696;53.686;10.094;2023-05-10T06:44:08;3.28;;;2.08;;
19127;SDS011;9696;53.686;10.094;2023-05-10T06:46:38;4.55;;;2.22;;
19127;SDS011;9696;53.686;10.094;2023-05-10T06:49:08;4.60;;;2.30;;
19127;SDS011;9696;53.686;10.094;2023-05-10T06:51:37;5.40;;;2.67;;
19127;SDS011;9696;53.686;10.094;2023-05-10T06:54:07;2.67;;;2.05;;
19127;SDS011;9696;53.686;10.094;2023-05-10T06:56:39;8.93;;;2.83;;
19127;SDS011;9696;53.686;10.094;2023-05-10T06:59:09;3.75;;;2.20;;
19127;SDS011;9696;53.686;10.094;2023-05-10T07:01:39;4.32;;;1.98;;
19127;SDS011;9696;53.686;10.094;2023-05-10T07:04:08;4.03;;;2.28;;
19127;SDS011;9696;53.686;10.094;2023-05-10T07:06:37;5.47;;;2.35;;
19127;SDS011;9696;53.686;10.094;2023-05-10T07:09:06;7.15;;;2.10;;
19127;SDS011;9696;53.686;10.094;2023-05-10T07:11:35;3.25;;;1.95;;
19127;SDS011;9696;53.686;10.094;2023-05-10T07:14:06;8.27;;;2.60;;
19127;SDS011;9696;53.686;10.094;2023-05-10T07:16:35;5.50;;;2.05;;
19127;SDS011;9696;53.686;10.094;2023-05-10T07:19:04;9.23;;;2.50;;
19127;SDS011;9696;53.686;10.094;2023-05-10T07:21:34;7.93;;;2.20;;
19127;SDS011;9696;53.686;10.094;2023-05-10T07:24:04;5.13;;;2.88;;
19127;SDS011;9696;53.686;10.094;2023-05-10T07:26:33;3.15;;;2.50;;
19127;SDS011;9696;53.686;10.094;2023-05-10T07:29:03;4.50;;;2.42;;
19127;SDS011;9696;53.686;10.094;2023-05-10T07:31:33;5.03;;;2.38;;
19127;SDS011;9696;53.686;10.094;2023-05-10T07:34:03;7.55;;;2.35;;
19127;SDS011;9696;53.686;10.094;2023-05-10T07:36:32;4.03;;;2.42;;
19127;SDS011;9696;53.686;10.094;2023-05-10T07:39:01;7.65;;;2.38;;
19127;SDS011;9696;53.686;10.094;2023-05-10T07:41:30;2.90;;;2.35;;
19127;SDS011;9696;53.686;10.094;2023-05-10T07:44:01;4.93;;;2.53;;
19127;SDS011;9696;53.686;10.094;2023-05-10T07:46:30;6.18;;;2.90;;
19127;SDS011;9696;53.686;10.094;2023-05-10T07:49:01;4.25;;;2.60;;
19127;SDS011;9696;53.686;10.094;2023-05-10T07:51:30;14.15;;;2.78;;
19127;SDS011;9696;53.686;10.094;2023-05-10T07:53:59;8.07;;;2.70;;
19127;SDS011;9696;53.686;10.094;2023-05-10T07:56:30;4.55;;;2.60;;
19127;SDS011;9696;53.686;10.094;2023-05-10T07:58:59;9.40;;;2.83;;
19127;SDS011;9696;53.686;10.094;2023-05-10T08:01:30;3.60;;;2.60;;
19127;SDS011;9696;53.686;10.094;2023-05-10T08:04:01;2.42;;;2.15;;
19127;SDS011;9696;53.686;10.094;2023-05-10T08:06:31;8.00;;;2.70;;
19127;SDS011;9696;53.686;10.094;2023-05-10T08:09:00;6.15;;;2.90;;
19127;SDS011;9696;53.686;10.094;2023-05-10T08:11:29;8.25;;;2.45;;
19127;SDS011;9696;53.686;10.094;2023-05-10T08:14:00;5.25;;;2.75;;
19127;SDS011;9696;53.686;10.094;2023-05-10T08:16:30;4.07;;;2.70;;
19127;SDS011;9696;53.686;10.094;2023-05-10T08:18:59;5.43;;;2.60;;
19127;SDS011;9696;53.686;10.094;2023-05-10T08:21:30;4.20;;;2.22;;
19127;SDS011;9696;53.686;10.094;2023-05-10T08:23:59;5.10;;;2.33;;
19127;SDS011;9696;53.686;10.094;2023-05-10T08:26:28;4.20;;;2.50;;
19127;SDS011;9696;53.686;10.094;2023-05-10T08:28:58;4.18;;;2.47;;
19127;SDS011;9696;53.686;10.094;2023-05-10T08:31:27;3.58;;;2.75;;
19127;SDS011;9696;53.686;10.094;2023-05-10T08:33:56;5.15;;;2.47;;
19127;SDS011;9696;53.686;10.094;2023-05-10T08:36:28;5.70;;;2.83;;
19127;SDS011;9696;53.686;10.094;2023-05-10T08:38:58;5.55;;;2.83;;
19127;SDS011;9696;53.686;10.094;2023-05-10T08:41:28;3.90;;;2.75;;
19127;SDS011;9696;53.686;10.094;2023-05-10T08:44:01;5.65;;;2.83;;
19127;SDS011;9696;53.686;10.094;2023-05-10T08:46:33;3.95;;;2.83;;
19127;SDS011;9696;53.686;10.094;2023-05-10T08:49:06;9.48;;;2.78;;
19127;SDS011;9696;53.686;10.094;2023-05-10T08:51:39;3.78;;;2.17;;
19127;SDS011;9696;53.686;10.094;2023-05-10T08:54:11;3.80;;;2.40;;
19127;SDS011;9696;53.686;10.094;2023-05-10T08:56:41;8.75;;;2.78;;
19127;SDS011;9696;53.686;10.094;2023-05-10T08:59:10;8.73;;;2.70;;
19127;SDS011;9696;53.686;10.094;2023-05-10T09:01:41;3.40;;;2.47;;
19127;SDS011;9696;53.686;10.094;2023-05-10T09:04:12;4.72;;;2.53;;
19127;SDS011;9696;53.686;10.094;2023-05-10T09:06:43;4.25;;;2.70;;
19127;SDS011;9696;53.686;10.094;2023-05-10T09:09:12;4.82;;;2.45;;
19127;SDS011;9696;53.686;10.094;2023-05-10T09:11:42;3.47;;;2.65;;
19127;SDS011;9696;53.686;10.094;2023-05-10T09:14:12;4.13;;;2.30;;
19127;SDS011;9696;53.686;10.094;2023-05-10T09:16:42;18.23;;;3.00;;
19127;SDS011;9696;53.686;10.094;2023-05-10T09:19:12;7.72;;;2.55;;
19127;SDS011;9696;53.686;10.094;2023-05-10T09:21:43;5.07;;;2.80;;
19127;SDS011;9696;53.686;10.094;2023-05-10T09:24:12;5.05;;;2.75;;
19127;SDS011;9696;53.686;10.094;2023-05-10T09:26:45;3.40;;;2.70;;
19127;SDS011;9696;53.686;10.094;2023-05-10T09:29:15;3.95;;;2.35;;
19127;SDS011;9696;53.686;10.094;2023-05-10T09:31:45;7.93;;;2.72;;
19127;SDS011;9696;53.686;10.094;2023-05-10T09:34:18;4.32;;;2.80;;
19127;SDS011;9696;53.686;10.094;2023-05-10T09:36:53;3.33;;;2.38;;
19127;SDS011;9696;53.686;10.094;2023-05-10T09:39:30;4.55;;;2.63;;
19127;SDS011;9696;53.686;10.094;2023-05-10T09:42:01;6.03;;;2.75;;
19127;SDS011;9696;53.686;10.094;2023-05-10T09:44:32;3.95;;;3.00;;
19127;SDS011;9696;53.686;10.094;2023-05-10T09:47:02;4.30;;;2.80;;
19127;SDS011;9696;53.686;10.094;2023-05-10T09:49:31;7.15;;;2.83;;
19127;SDS011;9696;53.686;10.094;2023-05-10T09:52:03;4.93;;;2.75;;
19127;SDS011;9696;53.686;10.094;2023-05-10T09:54:33;3.75;;;3.00;;
19127;SDS011;9696;53.686;10.094;2023-05-10T09:57:03;6.88;;;3.00;;
19127;SDS011;9696;53.686;10.094;2023-05-10T09:59:32;5.20;;;2.88;;
19127;SDS011;9696;53.686;10.094;2023-05-10T10:02:03;8.20;;;3.00;;
19127;SDS011;9696;53.686;10.094;2023-05-10T10:04:32;4.90;;;2.85;;
19127;SDS011;9696;53.686;10.094;2023-05-10T10:07:08;7.68;;;2.38;;
19127;SDS011;9696;53.686;10.094;2023-05-10T10:09:38;7.93;;;3.05;;
19127;SDS011;9696;53.686;10.094;2023-05-10T10:12:07;7.85;;;2.88;;
19127;SDS011;9696;53.686;10.094;2023-05-10T10:14:36;8.52;;;3.20;;
19127;SDS011;9696;53.686;10.094;2023-05-10T10:17:06;3.92;;;2.85;;
19127;SDS011;9696;53.686;10.094;2023-05-10T10:19:36;4.85;;;2.90;;
19127;SDS011;9696;53.686;10.094;2023-05-10T10:22:06;6.13;;;2.90;;
19127;SDS011;9696;53.686;10.094;2023-05-10T10:24:38;5.53;;;3.80;;
19127;SDS011;9696;53.686;10.094;2023-05-10T10:27:11;7.25;;;3.17;;
19127;SDS011;9696;53.686;10.094;2023-05-10T10:29:59;6.53;;;3.45;;
19127;SDS011;9696;53.686;10.094;2023-05-10T10:32:38;7.30;;;3.60;;
19127;SDS011;9696;53.686;10.094;2023-05-10T10:35:22;4.60;;;3.60;;
19127;SDS011;9696;53.686;10.094;2023-05-10T10:37:51;17.70;;;3.50;;
19127;SDS011;9696;53.686;10.094;2023-05-10T10:40:28;6.07;;;3.70;;
19127;SDS011;9696;53.686;10.094;2023-05-10T10:46:11;11.20;;;4.13;;
19127;SDS011;9696;53.686;10.094;2023-05-10T10:48:41;6.20;;;4.13;;
19127;SDS011;9696;53.686;10.094;2023-05-10T10:51:15;9.13;;;4.10;;
19127;SDS011;9696;53.686;10.094;2023-05-10T10:53:44;10.03;;;4.13;;
19127;SDS011;9696;53.686;10.094;2023-05-10T10:56:18;8.27;;;4.53;;
19127;SDS011;9696;53.686;10.094;2023-05-10T10:58:51;9.63;;;4.95;;
19127;SDS011;9696;53.686;10.094;2023-05-10T11:01:20;11.38;;;4.55;;
19127;SDS011;9696;53.686;10.094;2023-05-10T11:06:48;6.83;;;4.73;;
19127;SDS011;9696;53.686;10.094;2023-05-10T11:09:17;7.80;;;4.97;;
19127;SDS011;9696;53.686;10.094;2023-05-10T11:11:52;11.10;;;5.17;;
19127;SDS011;9696;53.686;10.094;2023-05-10T11:14:22;12.87;;;5.80;;
19127;SDS011;9696;53.686;10.094;2023-05-10T11:16:52;10.40;;;5.43;;
19127;SDS011;9696;53.686;10.094;2023-05-10T11:19:21;12.93;;;5.90;;
19127;SDS011;9696;53.686;10.094;2023-05-10T11:24:40;8.37;;;5.83;;
19127;SDS011;9696;53.686;10.094;2023-05-10T11:27:27;10.97;;;5.70;;
19127;SDS011;9696;53.686;10.094;2023-05-10T11:29:56;11.40;;;5.60;;
19127;SDS011;9696;53.686;10.094;2023-05-10T11:32:25;7.77;;;5.70;;
19127;SDS011;9696;53.686;10.094;2023-05-10T11:34:55;9.17;;;5.70;;
19127;SDS011;9696;53.686;10.094;2023-05-10T11:37:24;10.43;;;5.17;;
19127;SDS011;9696;53.686;10.094;2023-05-10T11:39:59;8.40;;;5.80;;
19127;SDS011;9696;53.686;10.094;2023-05-10T11:42:30;7.65;;;5.68;;
19127;SDS011;9696;53.686;10.094;2023-05-10T11:45:00;9.13;;;5.07;;
19127;SDS011;9696;53.686;10.094;2023-05-10T11:47:29;9.63;;;5.73;;
19127;SDS011;9696;53.686;10.094;2023-05-10T11:49:58;8.80;;;6.30;;
19127;SDS011;9696;53.686;10.094;2023-05-10T11:52:28;7.03;;;5.07;;
19127;SDS011;9696;53.686;10.094;2023-05-10T11:54:57;7.97;;;5.97;;
19127;SDS011;9696;53.686;10.094;2023-05-10T11:57:26;11.37;;;5.33;;
19127;SDS011;9696;53.686;10.094;2023-05-10T11:59:58;9.00;;;6.10;;
19127;SDS011;9696;53.686;10.094;2023-05-10T12:02:28;7.33;;;5.20;;
19127;SDS011;9696;53.686;10.094;2023-05-10T12:04:57;10.90;;;5.73;;
19127;SDS011;9696;53.686;10.094;2023-05-10T12:07:27;12.00;;;5.60;;
19127;SDS011;9696;53.686;10.094;2023-05-10T12:10:06;9.23;;;5.97;;
19127;SDS011;9696;53.686;10.094;2023-05-10T12:12:37;7.80;;;5.90;;
19127;SDS011;9696;53.686;10.094;2023-05-10T12:15:16;10.77;;;6.13;;
19127;SDS011;9696;53.686;10.094;2023-05-10T12:17:47;8.63;;;5.53;;
19127;SDS011;9696;53.686;10.094;2023-05-10T12:20:17;9.80;;;5.80;;
19127;SDS011;9696;53.686;10.094;2023-05-10T12:22:49;7.15;;;5.63;;
19127;SDS011;9696;53.686;10.094;2023-05-10T12:25:20;8.98;;;5.68;;
19127;SDS011;9696;53.686;10.094;2023-05-10T12:27:51;9.10;;;5.38;;
19127;SDS011;9696;53.686;10.094;2023-05-10T12:30:23;9.43;;;6.35;;
19127;SDS011;9696;53.686;10.094;2023-05-10T12:32:53;9.68;;;6.93;;
19127;SDS011;9696;53.686;10.094;2023-05-10T12:35:29;11.13;;;6.60;;
19127;SDS011;9696;53.686;10.094;2023-05-10T12:37:59;9.05;;;6.43;;
19127;SDS011;9696;53.686;10.094;2023-05-10T12:40:28;9.90;;;6.65;;
19127;SDS011;9696;53.686;10.094;2023-05-10T12:42:57;10.40;;;6.70;;
19127;SDS011;9696;53.686;10.094;2023-05-10T12:45:28;9.90;;;6.72;;
19127;SDS011;9696;53.686;10.094;2023-05-10T12:47:58;11.20;;;6.77;;
19127;SDS011;9696;53.686;10.094;2023-05-10T12:50:27;10.67;;;6.47;;
19127;SDS011;9696;53.686;10.094;2023-05-10T12:52:56;9.33;;;7.20;;
19127;SDS011;9696;53.686;10.094;2023-05-10T12:55:25;8.98;;;6.88;;
19127;SDS011;9696;53.686;10.094;2023-05-10T12:57:54;9.18;;;6.25;;
19127;SDS011;9696;53.686;10.094;2023-05-10T13:00:23;14.90;;;6.63;;
19127;SDS011;9696;53.686;10.094;2023-05-10T13:02:54;9.43;;;6.63;;
19127;SDS011;9696;53.686;10.094;2023-05-10T13:05:24;11.52;;;6.88;;
19127;SDS011;9696;53.686;10.094;2023-05-10T13:07:53;7.93;;;5.78;;
19127;SDS011;9696;53.686;10.094;2023-05-10T13:10:22;9.15;;;5.95;;
19127;SDS011;9696;53.686;10.094;2023-05-10T13:12:51;11.35;;;4.93;;
19127;SDS011;9696;53.686;10.094;2023-05-10T13:15:21;12.55;;;5.68;;
19127;SDS011;9696;53.686;10.094;2023-05-10T13:17:50;7.22;;;4.90;;
19127;SDS011;9696;53.686;10.094;2023-05-10T13:20:21;9.55;;;5.53;;
19127;SDS011;9696;53.686;10.094;2023-05-10T13:22:50;7.88;;;5.05;;
19127;SDS011;9696;53.686;10.094;2023-05-10T13:25:19;7.95;;;5.13;;
19127;SDS011;9696;53.686;10.094;2023-05-10T13:27:48;7.82;;;4.75;;
19127;SDS011;9696;53.686;10.094;2023-05-10T13:30:17;8.23;;;4.72;;
19127;SDS011;9696;53.686;10.094;2023-05-10T13:32:47;6.28;;;5.00;;
19127;SDS011;9696;53.686;10.094;2023-05-10T13:35:17;7.88;;;4.55;;
19127;SDS011;9696;53.686;10.094;2023-05-10T13:37:47;6.35;;;4.68;;
19127;SDS011;9696;53.686;10.094;2023-05-10T13:40:16;10.13;;;4.38;;
19127;SDS011;9696;53.686;10.094;2023-05-10T13:42:46;7.05;;;4.28;;
19127;SDS011;9696;53.686;10.094;2023-05-10T13:45:15;6.57;;;4.50;;
19127;SDS011;9696;53.686;10.094;2023-05-10T13:47:44;9.27;;;4.90;;
19127;SDS011;9696;53.686;10.094;2023-05-10T13:50:14;6.13;;;4.20;;
19127;SDS011;9696;53.686;10.094;2023-05-10T13:52:43;6.38;;;4.75;;
19127;SDS011;9696;53.686;10.094;2023-05-10T13:55:14;4.68;;;3.72;;
19127;SDS011;9696;53.686;10.094;2023-05-10T13:57:43;9.90;;;4.43;;
19127;SDS011;9696;53.686;10.094;2023-05-10T14:00:12;5.38;;;3.55;;
19127;SDS011;9696;53.686;10.094;2023-05-10T14:02:43;4.63;;;3.72;;
19127;SDS011;9696;53.686;10.094;2023-05-10T14:05:12;6.80;;;3.50;;
19127;SDS011;9696;53.686;10.094;2023-05-10T14:07:41;5.13;;;3.50;;
19127;SDS011;9696;53.686;10.094;2023-05-10T14:10:11;4.97;;;3.70;;
19127;SDS011;9696;53.686;10.094;2023-05-10T14:12:41;4.93;;;3.03;;
19127;SDS011;9696;53.686;10.094;2023-05-10T14:15:10;4.57;;;3.00;;
19127;SDS011;9696;53.686;10.094;2023-05-10T14:17:39;5.82;;;3.40;;
19127;SDS011;9696;53.686;10.094;2023-05-10T14:20:09;6.47;;;3.25;;
19127;SDS011;9696;53.686;10.094;2023-05-10T14:22:39;4.20;;;3.00;;
19127;SDS011;9696;53.686;10.094;2023-05-10T14:25:08;4.25;;;3.20;;
19127;SDS011;9696;53.686;10.094;2023-05-10T14:27:38;4.47;;;3.33;;
19127;SDS011;9696;53.686;10.094;2023-05-10T14:30:09;6.63;;;3.60;;
19127;SDS011;9696;53.686;10.094;2023-05-10T14:32:39;4.63;;;3.33;;
19127;SDS011;9696;53.686;10.094;2023-05-10T14:35:08;5.13;;;3.30;;
19127;SDS011;9696;53.686;10.094;2023-05-10T14:37:39;7.28;;;3.63;;
19127;SDS011;9696;53.686;10.094;2023-05-10T14:40:08;7.53;;;3.80;;
19127;SDS011;9696;53.686;10.094;2023-05-10T14:42:38;4.75;;;3.20;;
19127;SDS011;9696;53.686;10.094;2023-05-10T14:45:09;4.05;;;3.35;;
19127;SDS011;9696;53.686;10.094;2023-05-10T14:47:39;4.57;;;3.15;;
19127;SDS011;9696;53.686;10.094;2023-05-10T14:50:08;6.80;;;3.25;;
19127;SDS011;9696;53.686;10.094;2023-05-10T14:52:50;6.70;;;3.50;;
19127;SDS011;9696;53.686;10.094;2023-05-10T14:55:19;4.80;;;3.50;;
19127;SDS011;9696;53.686;10.094;2023-05-10T14:57:49;6.28;;;3.80;;
19127;SDS011;9696;53.686;10.094;2023-05-10T15:00:20;4.13;;;3.45;;
19127;SDS011;9696;53.686;10.094;2023-05-10T15:02:50;5.95;;;3.45;;
19127;SDS011;9696;53.686;10.094;2023-05-10T15:05:19;4.47;;;3.03;;
19127;SDS011;9696;53.686;10.094;2023-05-10T15:07:49;5.78;;;2.92;;
19127;SDS011;9696;53.686;10.094;2023-05-10T15:10:18;4.35;;;2.90;;
19127;SDS011;9696;53.686;10.094;2023-05-10T15:12:47;3.50;;;3.20;;
19127;SDS011;9696;53.686;10.094;2023-05-10T15:15:16;3.42;;;3.10;;
19127;SDS011;9696;53.686;10.094;2023-05-10T15:17:47;5.07;;;3.22;;
19127;SDS011;9696;53.686;10.094;2023-05-10T15:20:16;8.52;;;3.13;;